Time;durP1;ratioP1;P1;durP2;ratioP2;P2;SDS_P1;SDS_P2;PMS_P1;PMS_P2;Temp;Humidity;BMP_temperature;BMP_pressure;BME280_temperature;BME280_humidity;BME280_pressure;Samples;Min_cycle;Max_cycle;Signal;HPM_P1;HPM_P2
2023/01/16 00:00:19;;;;;;;10.05;1.73;;;7.00;99.90;;;;;;4903309;29;20550;-43
2023/01/16 00:02:45;;;;;;;18.55;3.20;;;7.00;99.90;;;;;;4904163;29;20036;-43
2023/01/16 00:05:11;;;;;;;11.15;1.45;;;7.00;99.90;;;;;;4904333;29;20076;-44
2023/01/16 00:07:37;;;;;;;11.32;2.20;;;7.00;99.90;;;;;;4908530;29;20039;-44
2023/01/16 00:10:04;;;;;;;11.60;1.98;;;7.00;99.90;;;;;;4907148;29;20067;-43
2023/01/16 00:12:30;;;;;;;10.93;1.77;;;7.00;99.90;;;;;;4903449;29;20119;-52
2023/01/16 00:14:55;;;;;;;13.98;1.83;;;6.90;99.90;;;;;;4909225;29;20555;-43
2023/01/16 00:17:21;;;;;;;16.05;2.00;;;6.90;99.90;;;;;;4912187;29;20028;-47
2023/01/16 00:19:47;;;;;;;9.30;1.70;;;6.90;99.90;;;;;;4912827;29;20084;-45
2023/01/16 00:22:12;;;;;;;9.32;1.52;;;6.90;99.90;;;;;;4909837;29;20420;-50
2023/01/16 00:24:38;;;;;;;21.13;4.45;;;6.90;99.90;;;;;;4909463;29;20032;-52
2023/01/16 00:27:03;;;;;;;14.30;1.88;;;6.80;99.90;;;;;;4905933;29;20048;-45
2023/01/16 00:29:29;;;;;;;11.30;2.88;;;6.80;99.90;;;;;;4908553;29;20076;-44
2023/01/16 00:31:55;;;;;;;13.95;2.80;;;6.80;99.90;;;;;;4904502;29;20028;-46
2023/01/16 00:34:20;;;;;;;10.20;2.97;;;6.70;99.90;;;;;;4906728;29;20032;-45
2023/01/16 00:36:46;;;;;;;13.35;2.60;;;6.70;99.90;;;;;;4905523;29;20195;-51
2023/01/16 00:39:11;;;;;;;12.25;3.35;;;6.60;99.90;;;;;;4910793;29;20032;-44
2023/01/16 00:41:37;;;;;;;8.75;2.17;;;6.50;99.90;;;;;;4913061;29;20028;-45
2023/01/16 00:44:03;;;;;;;10.68;2.38;;;6.50;99.90;;;;;;4909356;29;20396;-47
2023/01/16 00:46:29;;;;;;;10.27;3.00;;;6.40;99.90;;;;;;4917055;29;20044;-43
2023/01/16 00:48:56;;;;;;;8.20;3.03;;;6.30;99.90;;;;;;4916994;29;20107;-50
2023/01/16 00:51:21;;;;;;;14.48;2.35;;;6.30;99.90;;;;;;4915601;29;20043;-49
2023/01/16 00:53:47;;;;;;;15.43;2.63;;;6.30;99.90;;;;;;4917228;29;20029;-44
2023/01/16 00:56:13;;;;;;;11.48;2.17;;;6.20;99.90;;;;;;4907081;29;20380;-44
2023/01/16 00:58:38;;;;;;;9.13;2.22;;;6.20;99.90;;;;;;4916586;29;20066;-47
2023/01/16 01:01:05;;;;;;;7.97;1.48;;;6.10;99.90;;;;;;4917026;29;20472;-47
2023/01/16 01:03:31;;;;;;;11.68;1.60;;;6.10;99.90;;;;;;4915930;29;20028;-47
2023/01/16 01:05:57;;;;;;;4.72;1.23;;;6.00;99.90;;;;;;4917179;29;20028;-53
2023/01/16 01:08:23;;;;;;;5.60;1.40;;;5.90;99.90;;;;;;4916943;29;20036;-48
2023/01/16 01:10:49;;;;;;;7.40;1.60;;;5.90;99.90;;;;;;4909479;29;20047;-43
2023/01/16 01:13:14;;;;;;;11.60;1.17;;;5.90;99.90;;;;;;4903580;29;20096;-45
2023/01/16 01:15:40;;;;;;;3.88;0.90;;;5.80;99.90;;;;;;4916686;29;20037;-47
2023/01/16 01:18:06;;;;;;;8.02;0.90;;;5.80;99.90;;;;;;4916867;29;20093;-51
2023/01/16 01:20:32;;;;;;;1.45;0.50;;;5.60;99.90;;;;;;4916580;29;20028;-52
2023/01/16 01:22:57;;;;;;;3.38;0.43;;;5.40;99.90;;;;;;4901947;29;20032;-53
2023/01/16 01:25:24;;;;;;;5.22;0.75;;;5.10;99.90;;;;;;4912858;29;20043;-46
2023/01/16 01:27:49;;;;;;;2.80;0.60;;;4.90;99.90;;;;;;4916799;29;20047;-53
2023/01/16 01:30:16;;;;;;;3.30;0.70;;;4.70;99.90;;;;;;4916733;29;20347;-46
2023/01/16 01:32:42;;;;;;;2.20;0.60;;;4.50;99.90;;;;;;4903181;29;20063;-45
2023/01/16 01:35:08;;;;;;;0.63;0.50;;;4.40;99.90;;;;;;4915898;29;20046;-45
2023/01/16 01:37:35;;;;;;;2.50;0.60;;;4.40;99.90;;;;;;4914836;29;20039;-45
2023/01/16 01:40:02;;;;;;;0.65;0.40;;;4.30;99.90;;;;;;4903523;29;20498;-45
2023/01/16 01:42:43;;;;;;;7.07;0.77;;;4.30;99.90;;;;;;4916537;29;20039;-46
2023/01/16 01:45:34;;;;;;;2.17;0.50;;;4.30;99.90;;;;;;4904086;29;20032;-45
2023/01/16 01:48:12;;;;;;;3.17;0.45;;;4.40;99.90;;;;;;4913128;29;20429;-45
2023/01/16 01:50:48;;;;;;;4.22;0.65;;;4.40;99.90;;;;;;4903652;29;20128;-45
2023/01/16 01:53:18;;;;;;;4.88;0.50;;;4.40;99.90;;;;;;4913696;29;20205;-45
2023/01/16 01:55:46;;;;;;;1.35;0.40;;;4.40;99.90;;;;;;4898868;29;20065;-47
2023/01/16 01:58:20;;;;;;;2.00;0.50;;;4.40;99.90;;;;;;4911083;29;20094;-44
2023/01/16 02:00:47;;;;;;;3.72;0.70;;;4.40;99.90;;;;;;4909489;29;20036;-45
2023/01/16 02:03:25;;;;;;;1.02;0.30;;;4.40;99.90;;;;;;4902545;29;20035;-54
2023/01/16 02:05:55;;;;;;;4.38;0.50;;;4.40;99.90;;;;;;4907094;29;20036;-52
2023/01/16 02:08:24;;;;;;;;;;;4.40;99.90;;;;;;4903385;29;20064;-45
2023/01/16 02:10:58;;;;;;;4.65;0.60;;;4.40;99.90;;;;;;4903715;29;19919;-55
2023/01/16 02:13:24;;;;;;;4.07;0.77;;;4.40;99.90;;;;;;4904977;29;20048;-48
2023/01/16 02:21:44;;;;;;;6.28;0.80;;;4.40;99.90;;;;;;4907166;29;20039;-48
2023/01/16 02:24:37;;;;;;;2.42;0.65;;;4.50;99.90;;;;;;4904985;29;20456;-46
2023/01/16 02:27:27;;;;;;;2.80;0.50;;;4.50;99.90;;;;;;4907290;29;20476;-46
2023/01/16 02:30:11;;;;;;;5.65;0.60;;;4.50;99.90;;;;;;4902468;29;20895;-46
2023/01/16 02:32:51;;;;;;;5.05;0.90;;;4.50;99.90;;;;;;4911299;29;20028;-47
2023/01/16 02:35:32;;;;;;;4.32;0.82;;;4.50;99.90;;;;;;4901172;29;20107;-48
2023/01/16 02:38:01;;;;;;;4.03;0.60;;;4.60;99.90;;;;;;4905239;29;20032;-48
2023/01/16 02:40:38;;;;;;;6.93;0.98;;;4.60;99.90;;;;;;4905771;29;20026;-46
2023/01/16 02:43:08;;;;;;;3.10;0.73;;;4.60;99.90;;;;;;4908635;29;20115;-47
2023/01/16 02:45:37;;;;;;;3.58;0.55;;;4.60;99.90;;;;;;4905203;29;20059;-46
2023/01/16 02:48:36;;;;;;;4.43;0.70;;;4.50;99.90;;;;;;4901288;29;20063;-48
2023/01/16 02:51:34;;;;;;;8.65;0.80;;;4.60;99.90;;;;;;4907654;29;20051;-58
2023/01/16 02:54:12;;;;;;;9.63;1.20;;;4.60;99.90;;;;;;4893523;29;20111;-47
2023/01/16 02:56:45;;;;;;;5.82;0.82;;;4.60;99.90;;;;;;4902535;29;20032;-47
2023/01/16 02:59:13;;;;;;;2.10;0.68;;;4.60;99.90;;;;;;4913748;29;20034;-47
2023/01/16 03:01:40;;;;;;;7.05;0.70;;;4.60;99.90;;;;;;4904695;29;20147;-49
2023/01/16 03:04:37;;;;;;;5.22;0.70;;;4.60;99.90;;;;;;4909892;29;20072;-47
2023/01/16 03:07:44;;;;;;;6.18;0.68;;;4.70;99.90;;;;;;4907135;29;20038;-53
2023/01/16 03:10:50;;;;;;;6.93;1.20;;;4.70;99.90;;;;;;4907436;29;20068;-52
2023/01/16 03:13:29;;;;;;;3.72;1.02;;;4.70;99.90;;;;;;4902118;29;20031;-48
2023/01/16 03:15:54;;;;;;;5.40;0.70;;;4.70;99.90;;;;;;4902080;29;20032;-47
2023/01/16 03:18:23;;;;;;;4.38;0.65;;;4.60;99.90;;;;;;4903924;29;20498;-47
2023/01/16 03:21:00;;;;;;;2.20;0.70;;;4.60;99.90;;;;;;4896382;29;20024;-46
2023/01/16 03:23:47;;;;;;;2.15;0.60;;;4.60;99.90;;;;;;4896049;29;20032;-50
2023/01/16 03:26:19;;;;;;;5.00;0.70;;;4.60;99.90;;;;;;4897313;29;20068;-49
2023/01/16 03:29:01;;;;;;;5.47;0.60;;;4.60;99.90;;;;;;4896472;29;20037;-47
2023/01/16 03:31:36;;;;;;;5.78;0.60;;;4.50;99.90;;;;;;4902784;29;20122;-48
2023/01/16 03:34:11;;;;;;;5.53;0.73;;;4.40;99.90;;;;;;4900339;29;20506;-45
2023/01/16 03:36:51;;;;;;;1.75;0.50;;;4.40;99.90;;;;;;4900538;29;20036;-49
2023/01/16 03:39:21;;;;;;;3.00;0.73;;;4.30;99.90;;;;;;4896602;29;20032;-47
2023/01/16 03:41:49;;;;;;;4.57;0.40;;;4.30;99.90;;;;;;4901263;29;20028;-47
2023/01/16 03:44:29;;;;;;;1.88;0.63;;;4.30;99.90;;;;;;4899017;29;20025;-48
2023/01/16 03:46:55;;;;;;;1.38;0.40;;;4.20;99.90;;;;;;4902011;29;20060;-47
2023/01/16 03:49:34;;;;;;;1.00;0.73;;;4.20;99.90;;;;;;4898565;29;20064;-53
2023/01/16 03:52:04;;;;;;;2.80;0.70;;;4.20;99.90;;;;;;4895442;29;20049;-46
2023/01/16 03:54:36;;;;;;;;;;;4.10;99.90;;;;;;4906789;29;20029;-48
2023/01/16 03:57:08;;;;;;;0.50;0.40;;;4.10;99.90;;;;;;4905005;29;19911;-46
2023/01/16 03:59:36;;;;;;;4.47;0.68;;;4.00;99.90;;;;;;4895547;29;20029;-48
2023/01/16 04:02:14;;;;;;;0.30;0.30;;;4.00;99.90;;;;;;4896444;29;20044;-46
2023/01/16 04:05:09;;;;;;;1.92;0.32;;;3.90;99.90;;;;;;4898094;29;20024;-46
2023/01/16 04:07:53;;;;;;;3.85;0.35;;;3.80;99.90;;;;;;4904256;29;20075;-45
2023/01/16 04:10:31;;;;;;;2.85;0.57;;;3.80;99.90;;;;;;4909142;29;20079;-46
2023/01/16 04:13:01;;;;;;;1.65;0.45;;;3.80;99.90;;;;;;4896277;29;20210;-46
2023/01/16 04:15:30;;;;;;;0.85;0.40;;;3.70;99.90;;;;;;4897424;29;20029;-46
2023/01/16 04:17:57;;;;;;;0.63;0.43;;;3.70;99.90;;;;;;4902021;29;20080;-46
2023/01/16 04:20:25;;;;;;;2.65;0.50;;;3.60;99.90;;;;;;4899862;29;20032;-46
2023/01/16 04:22:51;;;;;;;1.52;0.40;;;3.60;99.90;;;;;;4906775;29;20111;-46
2023/01/16 04:25:18;;;;;;;1.15;0.47;;;3.50;99.90;;;;;;4896406;29;20085;-46
2023/01/16 04:27:44;;;;;;;1.23;0.32;;;3.40;99.90;;;;;;4905730;29;20111;-46
2023/01/16 04:30:10;;;;;;;2.17;0.45;;;3.30;99.90;;;;;;4911058;29;20123;-47
2023/01/16 04:32:36;;;;;;;1.88;0.43;;;3.20;99.90;;;;;;4896810;29;20024;-49
2023/01/16 04:35:03;;;;;;;0.40;0.40;;;3.10;99.90;;;;;;4909835;29;20032;-46
2023/01/16 04:37:29;;;;;;;0.47;0.40;;;3.00;99.90;;;;;;4895603;29;20111;-49
2023/01/16 04:39:54;;;;;;;1.50;0.50;;;3.00;99.90;;;;;;4907406;29;20107;-46
2023/01/16 04:42:20;;;;;;;1.10;0.40;;;2.90;99.90;;;;;;4911464;29;20115;-49
2023/01/16 04:44:46;;;;;;;1.17;0.40;;;2.80;99.90;;;;;;4914657;29;20036;-46
2023/01/16 04:47:11;;;;;;;0.70;0.50;;;2.80;99.90;;;;;;4900810;29;20076;-46
2023/01/16 04:49:37;;;;;;;2.40;0.50;;;2.80;99.90;;;;;;4909985;29;20025;-46
2023/01/16 04:52:03;;;;;;;0.75;0.50;;;2.70;99.90;;;;;;4898257;29;20044;-46
2023/01/16 04:54:29;;;;;;;0.60;0.50;;;2.70;99.90;;;;;;4907100;29;20469;-45
2023/01/16 04:56:55;;;;;;;1.48;0.60;;;2.70;99.90;;;;;;4898897;29;20085;-46
2023/01/16 04:59:20;;;;;;;1.05;0.50;;;2.70;99.90;;;;;;4898912;29;20029;-50
2023/01/16 05:01:46;;;;;;;1.65;0.50;;;2.60;99.90;;;;;;4899852;29;20029;-49
2023/01/16 05:04:14;;;;;;;0.50;0.50;;;2.60;99.90;;;;;;4903326;29;20036;-51
2023/01/16 05:06:40;;;;;;;0.63;0.43;;;2.50;99.90;;;;;;4898205;29;20024;-49
2023/01/16 05:09:06;;;;;;;0.65;0.40;;;2.50;99.90;;;;;;4901470;29;20380;-46
2023/01/16 05:11:33;;;;;;;0.50;0.50;;;2.50;99.90;;;;;;4908813;29;20408;-51
2023/01/16 05:13:59;;;;;;;0.65;0.47;;;2.50;99.90;;;;;;4905942;29;20491;-46
2023/01/16 05:16:26;;;;;;;1.13;0.60;;;2.50;99.90;;;;;;4899729;29;20036;-50
2023/01/16 05:18:51;;;;;;;0.70;0.45;;;2.40;99.90;;;;;;4897804;29;20503;-46
2023/01/16 05:21:17;;;;;;;0.80;0.60;;;2.40;99.90;;;;;;4905672;29;20027;-46
2023/01/16 05:23:42;;;;;;;2.63;0.60;;;2.40;99.90;;;;;;4904691;29;20036;-47
2023/01/16 05:26:08;;;;;;;1.17;0.70;;;2.40;99.90;;;;;;4897733;29;20040;-53
2023/01/16 05:28:35;;;;;;;0.40;0.40;;;2.50;99.90;;;;;;4897814;29;20061;-52
2023/01/16 05:31:00;;;;;;;0.68;0.50;;;2.40;99.90;;;;;;4913279;29;20047;-48
2023/01/16 05:33:26;;;;;;;0.70;0.60;;;2.50;99.90;;;;;;4903695;29;20124;-46
2023/01/16 05:35:53;;;;;;;0.80;0.57;;;2.50;99.90;;;;;;4905233;29;20037;-49
2023/01/16 05:38:19;;;;;;;0.95;0.65;;;2.50;99.90;;;;;;4897537;29;20598;-48
2023/01/16 05:40:46;;;;;;;1.00;0.68;;;2.60;99.90;;;;;;4900009;29;20132;-49
2023/01/16 05:43:12;;;;;;;0.90;0.60;;;2.60;99.90;;;;;;4909412;29;20020;-48
2023/01/16 05:45:38;;;;;;;0.90;0.60;;;2.60;99.90;;;;;;4901612;29;20048;-46
2023/01/16 05:48:04;;;;;;;0.70;0.60;;;2.60;99.90;;;;;;4902160;29;20109;-46
2023/01/16 05:50:30;;;;;;;0.55;0.40;;;2.60;99.90;;;;;;4898031;29;20041;-51
2023/01/16 05:52:56;;;;;;;0.55;0.40;;;2.60;99.90;;;;;;4908645;29;20040;-49
2023/01/16 05:55:22;;;;;;;0.50;0.50;;;2.70;99.90;;;;;;4897110;29;20036;-51
2023/01/16 05:57:47;;;;;;;0.55;0.47;;;2.70;99.90;;;;;;4898258;29;20024;-47
2023/01/16 06:00:14;;;;;;;0.70;0.52;;;2.70;99.90;;;;;;4901265;29;20400;-49
2023/01/16 06:02:39;;;;;;;1.05;0.60;;;2.70;99.90;;;;;;4906594;29;20033;-49
2023/01/16 06:05:05;;;;;;;1.20;0.60;;;2.80;99.90;;;;;;4902304;29;20052;-54
2023/01/16 06:07:31;;;;;;;0.98;0.60;;;2.80;99.90;;;;;;4909167;29;20114;-48
2023/01/16 06:09:57;;;;;;;0.90;0.65;;;2.80;99.90;;;;;;4906959;29;20461;-47
2023/01/16 06:12:22;;;;;;;1.08;0.68;;;2.80;99.90;;;;;;4905918;29;20092;-48
2023/01/16 06:14:48;;;;;;;0.75;0.60;;;2.80;99.90;;;;;;4904373;29;20119;-46
2023/01/16 06:17:15;;;;;;;1.30;0.57;;;2.80;99.90;;;;;;4898823;29;20055;-49
2023/01/16 06:19:41;;;;;;;0.73;0.68;;;2.70;99.90;;;;;;4896584;29;20036;-45
2023/01/16 06:22:07;;;;;;;0.40;0.40;;;2.80;99.90;;;;;;4899856;29;20039;-46
2023/01/16 06:24:33;;;;;;;0.90;0.63;;;2.70;99.90;;;;;;4896545;29;20032;-47
2023/01/16 06:26:59;;;;;;;0.60;0.50;;;2.70;99.90;;;;;;4899665;29;20116;-50
2023/01/16 06:29:25;;;;;;;0.50;0.50;;;2.70;99.90;;;;;;4905250;29;20088;-48
2023/01/16 06:31:50;;;;;;;0.90;0.60;;;2.70;99.90;;;;;;4898865;29;20477;-50
2023/01/16 06:34:16;;;;;;;1.42;0.70;;;2.70;99.90;;;;;;4903932;29;20539;-46
2023/01/16 06:36:42;;;;;;;1.42;1.05;;;2.70;99.90;;;;;;4900925;29;20103;-51
2023/01/16 06:39:11;;;;;;;2.67;1.05;;;2.60;99.90;;;;;;4908377;29;20036;-52
2023/01/16 06:41:36;;;;;;;1.63;0.98;;;2.60;99.90;;;;;;4898248;29;20033;-51
2023/01/16 06:44:02;;;;;;;2.83;1.00;;;2.60;99.90;;;;;;4900256;29;20030;-49
2023/01/16 06:46:28;;;;;;;1.83;1.00;;;2.60;99.90;;;;;;4899707;29;20101;-47
2023/01/16 06:48:53;;;;;;;1.17;0.80;;;2.60;99.90;;;;;;4911612;29;20536;-48
2023/01/16 06:51:19;;;;;;;0.90;0.70;;;2.60;99.90;;;;;;4899540;29;20452;-47
2023/01/16 06:53:44;;;;;;;1.70;0.90;;;2.50;99.90;;;;;;4904687;29;20420;-47
2023/01/16 06:56:10;;;;;;;1.15;0.88;;;2.60;99.90;;;;;;4894673;29;20028;-47
2023/01/16 06:58:35;;;;;;;1.48;0.90;;;2.60;99.90;;;;;;4897260;29;20021;-49
2023/01/16 07:01:01;;;;;;;1.27;0.82;;;2.60;99.90;;;;;;4898923;29;20032;-51
2023/01/16 07:03:27;;;;;;;1.13;0.77;;;2.60;99.90;;;;;;4897685;29;20414;-47
2023/01/16 07:05:52;;;;;;;2.83;1.55;;;2.60;99.90;;;;;;4899975;29;20032;-49
2023/01/16 07:08:18;;;;;;;1.27;0.70;;;2.70;99.90;;;;;;4906351;29;20356;-47
2023/01/16 07:10:44;;;;;;;3.15;0.82;;;2.70;99.90;;;;;;4910753;29;20107;-46
2023/01/16 07:13:10;;;;;;;0.65;0.60;;;2.70;99.90;;;;;;4901045;29;20518;-47
2023/01/16 07:24:08;;;;;;;1.90;0.50;;;2.60;99.90;;;;;;4903184;29;20539;-47
2023/01/16 07:26:35;;;;;;;0.50;0.50;;;2.60;99.90;;;;;;4895271;29;20123;-47
2023/01/16 07:29:02;;;;;;;0.50;0.40;;;2.60;99.90;;;;;;4903871;29;20028;-52
2023/01/16 07:31:28;;;;;;;0.60;0.50;;;2.70;99.90;;;;;;4900443;29;20444;-48
2023/01/16 07:33:54;;;;;;;0.50;0.50;;;2.70;99.90;;;;;;4909492;29;20028;-47
2023/01/16 07:36:19;;;;;;;0.80;0.50;;;2.70;99.90;;;;;;4896687;29;20036;-47
2023/01/16 07:38:45;;;;;;;0.40;0.40;;;2.70;99.90;;;;;;4909228;29;20035;-48
2023/01/16 07:41:11;;;;;;;0.50;0.50;;;2.70;99.90;;;;;;4904513;29;20060;-48
2023/01/16 07:43:36;;;;;;;0.82;0.50;;;2.70;99.90;;;;;;4909689;29;20032;-48
2023/01/16 07:46:02;;;;;;;1.50;0.55;;;2.70;99.90;;;;;;4896540;29;20036;-47
2023/01/16 07:48:28;;;;;;;0.93;0.57;;;2.70;99.90;;;;;;4899524;29;20032;-46
2023/01/16 07:50:56;;;;;;;0.93;0.65;;;2.70;99.90;;;;;;4905373;29;20076;-46
2023/01/16 07:53:24;;;;;;;2.10;0.88;;;2.70;99.90;;;;;;4901040;29;20028;-48
2023/01/16 07:55:55;;;;;;;0.85;0.73;;;2.70;99.90;;;;;;4896531;29;20075;-47
2023/01/16 07:58:21;;;;;;;2.05;1.15;;;2.70;99.90;;;;;;4895747;29;20040;-56
2023/01/16 08:00:47;;;;;;;2.03;0.90;;;2.70;99.90;;;;;;4895604;29;20032;-48
2023/01/16 08:03:14;;;;;;;2.45;0.88;;;2.70;99.90;;;;;;4894198;29;20409;-55
2023/01/16 08:05:40;;;;;;;1.10;0.80;;;2.80;99.90;;;;;;4905269;29;20535;-51
2023/01/16 08:08:06;;;;;;;1.20;0.80;;;2.80;99.90;;;;;;4913608;29;20028;-47
2023/01/16 08:10:32;;;;;;;2.42;1.20;;;2.80;99.90;;;;;;4907946;29;20049;-49
2023/01/16 08:12:57;;;;;;;2.70;1.33;;;2.80;99.90;;;;;;4911195;29;20391;-50
2023/01/16 08:15:23;;;;;;;3.70;1.45;;;2.90;99.90;;;;;;4911022;29;20429;-47
2023/01/16 08:17:49;;;;;;;3.35;1.58;;;2.90;99.90;;;;;;4909851;29;20099;-51
2023/01/16 08:20:14;;;;;;;3.05;1.50;;;2.90;99.90;;;;;;4905281;29;20024;-46
2023/01/16 08:22:44;;;;;;;3.08;1.65;;;3.00;99.90;;;;;;4913479;29;20032;-52
2023/01/16 08:25:10;;;;;;;4.88;1.63;;;3.10;99.90;;;;;;4915296;29;20107;-50
2023/01/16 08:27:36;;;;;;;3.78;1.40;;;3.10;99.90;;;;;;4913438;29;20114;-49
2023/01/16 08:30:02;;;;;;;2.80;1.50;;;3.20;99.90;;;;;;4912483;29;20083;-46
2023/01/16 08:32:28;;;;;;;3.50;2.08;;;3.20;99.90;;;;;;4912932;29;20051;-48
2023/01/16 08:34:53;;;;;;;5.68;2.13;;;3.30;99.90;;;;;;4911711;29;20376;-45
2023/01/16 08:37:19;;;;;;;4.13;2.15;;;3.40;99.90;;;;;;4909341;29;20095;-47
2023/01/16 08:39:44;;;;;;;6.55;2.47;;;3.40;99.90;;;;;;4913486;29;20444;-48
2023/01/16 08:53:28;;;;;;;7.68;3.90;;;3.70;99.90;;;;;;4911582;29;20046;-50
2023/01/16 08:55:53;;;;;;;9.77;4.22;;;3.80;99.90;;;;;;4915340;29;20535;-49
2023/01/16 08:58:22;;;;;;;11.35;4.88;;;3.90;99.90;;;;;;4907633;29;20035;-48
2023/01/16 09:00:48;;;;;;;18.88;5.72;;;3.90;99.90;;;;;;4903712;29;20028;-47
2023/01/16 09:03:16;;;;;;;35.25;12.32;;;4.00;99.90;;;;;;4912939;29;20020;-51
2023/01/16 09:05:42;;;;;;;25.70;5.80;;;4.00;99.90;;;;;;4909696;29;20048;-48
2023/01/16 09:08:08;;;;;;;24.40;9.30;;;4.10;99.90;;;;;;4907655;29;20091;-48
2023/01/16 09:10:33;;;;;;;25.63;8.02;;;4.10;99.90;;;;;;4911244;29;20044;-49
2023/01/16 09:15:43;;;;;;;26.42;6.72;;;4.20;99.90;;;;;;4899836;29;20047;-46
2023/01/16 09:18:09;;;;;;;22.83;6.68;;;4.10;99.90;;;;;;4900345;29;20107;-46
2023/01/16 09:20:34;;;;;;;21.08;5.80;;;4.20;99.90;;;;;;4898806;29;20448;-45
2023/01/16 09:23:02;;;;;;;16.10;5.50;;;4.20;99.90;;;;;;4897720;29;20029;-46
2023/01/16 09:25:29;;;;;;;16.25;4.72;;;4.20;99.90;;;;;;4897281;29;20037;-46
2023/01/16 09:27:55;;;;;;;22.30;5.43;;;4.20;99.90;;;;;;4898850;29;20395;-54
2023/01/16 09:30:21;;;;;;;14.27;5.03;;;4.20;99.90;;;;;;4899282;29;20032;-47
2023/01/16 09:32:47;;;;;;;24.63;6.78;;;4.20;99.90;;;;;;4907126;29;20133;-49
2023/01/16 09:35:13;;;;;;;22.17;5.78;;;4.20;99.90;;;;;;4901657;29;20029;-50
2023/01/16 09:37:42;;;;;;;17.02;5.32;;;4.20;99.90;;;;;;4897480;29;20369;-46
2023/01/16 09:40:15;;;;;;;15.30;4.88;;;4.30;99.90;;;;;;4897530;29;20124;-46
2023/01/16 09:45:54;;;;;;;16.00;5.30;;;4.30;99.90;;;;;;4898548;29;20039;-49
2023/01/16 09:48:30;;;;;;;11.23;4.40;;;4.30;99.90;;;;;;4902105;29;20043;-46
2023/01/16 09:51:05;;;;;;;19.77;5.45;;;4.40;99.90;;;;;;4897185;29;20044;-46
2023/01/16 09:59:37;;;;;;;14.15;5.22;;;4.40;99.90;;;;;;4900010;29;20116;-48
2023/01/16 10:02:11;;;;;;;20.15;6.03;;;4.40;99.90;;;;;;4902178;29;20099;-48
2023/01/16 10:04:37;;;;;;;20.17;8.20;;;4.40;99.90;;;;;;4908512;29;20481;-46
2023/01/16 10:07:20;;;;;;;14.52;5.63;;;4.40;99.90;;;;;;4904782;29;20048;-45
2023/01/16 10:10:14;;;;;;;25.02;7.80;;;4.50;99.90;;;;;;4910259;29;20036;-47
2023/01/16 10:12:47;;;;;;;22.05;6.65;;;4.50;99.90;;;;;;4898251;29;20037;-46
2023/01/16 10:15:54;;;;;;;26.45;8.52;;;4.50;99.90;;;;;;4906565;29;20021;-45
2023/01/16 10:18:38;;;;;;;13.05;5.80;;;4.50;99.90;;;;;;4865928;29;20032;-46
2023/01/16 10:21:07;;;;;;;13.40;4.70;;;4.50;99.90;;;;;;4903431;29;20043;-45
2023/01/16 10:24:00;;;;;;;13.00;5.07;;;4.50;99.90;;;;;;4909008;29;20035;-46
2023/01/16 10:26:36;;;;;;;7.90;4.53;;;4.50;99.90;;;;;;4913660;29;20119;-46
2023/01/16 10:29:31;;;;;;;15.07;5.95;;;4.60;99.90;;;;;;4904705;29;20495;-47
2023/01/16 10:32:04;;;;;;;17.00;5.35;;;4.70;99.90;;;;;;4874218;29;20059;-45
2023/01/16 10:34:51;;;;;;;10.93;4.88;;;4.70;99.90;;;;;;4900187;29;20059;-46
2023/01/16 10:37:17;;;;;;;14.15;5.80;;;4.70;99.90;;;;;;4896804;29;20083;-47
2023/01/16 10:39:43;;;;;;;10.73;4.47;;;4.70;99.90;;;;;;4904375;29;20028;-45
2023/01/16 10:50:36;;;;;;;10.55;4.63;;;4.90;99.90;;;;;;4912575;29;20151;-45
2023/01/16 10:53:08;;;;;;;10.18;4.57;;;4.90;99.90;;;;;;4913097;29;20032;-44
2023/01/16 10:55:35;;;;;;;10.93;4.78;;;4.90;99.90;;;;;;4908788;29;20083;-46
2023/01/16 10:58:25;;;;;;;9.60;4.28;;;5.00;99.90;;;;;;4912969;29;20500;-46
2023/01/16 11:00:55;;;;;;;9.50;4.18;;;4.90;99.90;;;;;;4907451;29;20084;-47
2023/01/16 11:03:33;;;;;;;9.00;4.55;;;4.90;99.90;;;;;;4910907;29;20116;-47
2023/01/16 11:06:27;;;;;;;11.88;4.82;;;4.80;99.90;;;;;;4907488;29;20083;-46
2023/01/16 11:09:06;;;;;;;9.13;4.88;;;4.90;99.90;;;;;;4903238;29;20108;-47
2023/01/16 11:20:10;;;;;;;6.88;4.50;;;5.10;99.90;;;;;;4904294;29;20048;-52
2023/01/16 11:22:39;;;;;;;13.05;7.30;;;5.00;99.90;;;;;;4902630;29;20040;-48
2023/01/16 11:25:06;;;;;;;15.50;7.78;;;4.90;99.90;;;;;;4906241;29;20040;-48
2023/01/16 11:27:36;;;;;;;16.90;7.55;;;4.80;99.90;;;;;;4907576;29;20100;-46
2023/01/16 11:30:18;;;;;;;19.42;10.45;;;4.70;99.90;;;;;;4908482;29;20040;-45
2023/01/16 11:32:47;;;;;;;15.07;8.52;;;4.70;99.90;;;;;;4903377;29;20032;-45
2023/01/16 11:35:15;;;;;;;13.38;5.57;;;4.80;99.90;;;;;;4898703;29;20187;-46
2023/01/16 11:37:44;;;;;;;12.02;6.07;;;4.80;99.90;;;;;;4909496;29;20028;-45
2023/01/16 11:40:25;;;;;;;10.45;6.43;;;4.80;99.90;;;;;;4904487;29;20039;-45
2023/01/16 11:46:04;;;;;;;9.35;6.15;;;4.80;99.90;;;;;;4913574;29;20043;-45
2023/01/16 11:48:37;;;;;;;16.60;8.43;;;4.90;99.90;;;;;;4916578;29;20063;-45
2023/01/16 11:51:05;;;;;;;44.03;15.25;;;4.80;99.90;;;;;;4918091;29;20183;-45
2023/01/16 11:53:32;;;;;;;39.60;18.55;;;4.70;99.90;;;;;;4918142;29;20364;-45
2023/01/16 11:56:16;;;;;;;24.73;11.93;;;4.70;99.90;;;;;;4917866;29;20092;-45
2023/01/16 11:58:53;;;;;;;31.40;13.18;;;4.70;99.90;;;;;;4918252;29;20036;-45
2023/01/16 12:04:33;;;;;;;22.35;11.02;;;4.70;99.90;;;;;;4899650;29;20448;-44
2023/01/16 12:07:07;;;;;;;16.42;8.98;;;4.70;99.90;;;;;;4898208;29;20112;-45
2023/01/16 12:10:03;;;;;;;17.73;10.07;;;4.70;99.90;;;;;;4899331;29;20032;-46
2023/01/16 12:16:02;;;;;;;13.35;8.27;;;4.70;99.90;;;;;;4899650;29;20042;-46
2023/01/16 12:18:30;;;;;;;15.80;9.63;;;4.70;99.90;;;;;;4914294;29;20028;-45
2023/01/16 12:21:01;;;;;;;14.30;8.02;;;4.70;99.90;;;;;;4898633;29;20060;-45
2023/01/16 12:23:54;;;;;;;13.20;8.00;;;4.70;99.90;;;;;;4908147;29;20036;-50
2023/01/16 12:26:26;;;;;;;14.77;7.53;;;4.70;99.90;;;;;;4898586;29;20080;-45
2023/01/16 12:29:13;;;;;;;16.80;8.35;;;4.80;99.90;;;;;;4901228;29;20485;-45
2023/01/16 12:31:50;;;;;;;15.73;10.18;;;5.00;99.90;;;;;;4898609;29;20055;-51
2023/01/16 12:34:32;;;;;;;11.70;5.95;;;5.20;99.90;;;;;;4898359;29;20033;-47
2023/01/16 12:37:06;;;;;;;10.13;6.95;;;5.20;99.90;;;;;;4898563;29;20032;-50
2023/01/16 12:39:43;;;;;;;13.13;7.70;;;5.30;99.90;;;;;;4898548;29;20505;-45
2023/01/16 12:45:17;;;;;;;14.45;8.15;;;5.50;99.90;;;;;;4898477;29;20099;-49
2023/01/16 12:48:08;;;;;;;13.20;7.18;;;5.60;99.90;;;;;;4898211;29;20049;-47
2023/01/16 12:50:54;;;;;;;13.30;6.85;;;5.70;99.90;;;;;;4899277;29;20036;-47
2023/01/16 12:53:37;;;;;;;15.35;8.48;;;5.50;99.90;;;;;;4878507;29;20498;-45
2023/01/16 12:56:46;;;;;;;16.95;8.32;;;5.40;99.90;;;;;;4906894;29;20038;-45
2023/01/16 12:59:20;;;;;;;;;;;5.30;99.90;;;;;;4868206;29;20096;-46
2023/01/16 13:02:13;;;;;;;14.13;7.30;;;5.50;99.90;;;;;;4905475;29;20245;-51
2023/01/16 13:04:45;;;;;;;11.63;6.55;;;5.90;99.90;;;;;;4908562;29;20064;-45
2023/01/16 13:07:16;;;;;;;14.10;7.13;;;6.50;99.90;;;;;;4914552;29;20043;-45
2023/01/16 13:13:20;;;;;;;13.35;6.25;;;6.60;99.90;;;;;;4909644;29;20036;-50
2023/01/16 13:15:31;;;;;;;11.65;5.93;;;6.10;99.90;;;;;;4904018;29;20499;-47
2023/01/16 13:18:21;;;;;;;12.02;6.30;;;5.90;99.90;;;;;;4905879;29;20574;-44
2023/01/16 13:20:51;;;;;;;12.20;7.18;;;5.80;99.90;;;;;;4910478;29;20029;-48
2023/01/16 13:23:22;;;;;;;7.93;5.28;;;6.80;99.90;;;;;;4903640;29;20035;-44
2023/01/16 13:25:56;;;;;;;8.48;5.60;;;8.30;99.90;;;;;;4907725;29;20024;-50
2023/01/16 13:28:42;;;;;;;8.77;5.38;;;9.70;99.90;;;;;;4913032;29;20110;-45
2023/01/16 13:31:25;;;;;;;8.38;4.90;;;9.80;99.90;;;;;;4901682;29;20093;-47
2023/01/16 13:33:56;;;;;;;8.15;5.00;;;8.60;99.90;;;;;;4912048;29;20028;-45
2023/01/16 13:36:48;;;;;;;9.02;5.43;;;8.10;99.90;;;;;;4915494;29;20060;-54
2023/01/16 13:39:52;;;;;;;7.70;4.95;;;8.20;99.90;;;;;;4908031;29;20048;-49
2023/01/16 13:42:19;;;;;;;10.60;4.90;;;8.00;99.90;;;;;;4913389;29;20039;-47
2023/01/16 13:47:39;;;;;;;9.65;5.38;;;7.60;99.90;;;;;;4912659;29;20051;-44
2023/01/16 13:50:13;;;;;;;7.07;4.47;;;7.00;99.90;;;;;;4915455;29;20052;-43
2023/01/16 13:52:42;;;;;;;12.55;5.72;;;6.80;99.90;;;;;;4912274;29;20027;-44
2023/01/16 13:55:32;;;;;;;12.70;6.35;;;6.60;99.90;;;;;;4906408;29;20043;-44
2023/01/16 13:58:21;;;;;;;9.93;5.53;;;6.60;99.90;;;;;;4900657;29;21134;-43
2023/01/16 14:00:56;;;;;;;8.48;5.70;;;6.50;99.90;;;;;;4914047;29;20032;-53
2023/01/16 14:03:33;;;;;;;11.65;5.32;;;6.30;99.90;;;;;;4906700;29;20462;-51
2023/01/16 14:06:18;;;;;;;11.48;6.07;;;6.20;99.90;;;;;;4904210;29;20041;-46
2023/01/16 14:09:14;;;;;;;10.73;6.13;;;6.00;99.90;;;;;;4906362;29;20032;-45
2023/01/16 14:11:58;;;;;;;10.02;5.70;;;5.90;99.90;;;;;;4888260;29;20048;-44
2023/01/16 14:17:27;;;;;;;10.63;5.93;;;5.50;99.90;;;;;;4907081;29;20071;-51
2023/01/16 14:20:00;;;;;;;;;;;5.50;99.90;;;;;;4904430;29;20096;-47
2023/01/16 14:25:17;;;;;;;14.57;7.80;;;5.90;99.90;;;;;;4904004;29;20046;-44
2023/01/16 14:27:43;;;;;;;13.98;7.35;;;6.40;99.90;;;;;;4909100;29;20047;-48
2023/01/16 14:30:35;;;;;;;15.32;8.32;;;6.50;99.90;;;;;;4909500;29;20424;-45
2023/01/16 14:33:05;;;;;;;13.93;7.90;;;6.90;99.90;;;;;;4910496;29;20148;-45
2023/01/16 14:35:47;;;;;;;9.65;6.07;;;6.80;99.90;;;;;;4911993;29;20491;-44